Time;durP1;ratioP1;P1;durP2;ratioP2;P2;SDS_P1;SDS_P2;PMS_P1;PMS_P2;Temp;Humidity;BMP_temperature;BMP_pressure;BME280_temperature;BME280_humidity;BME280_pressure;Samples;Min_cycle;Max_cycle;Signal;HPM_P1;HPM_P2
2022/11/22 00:00:59;;;;;;;12.17;8.40;;;;;;;8.44;53.52;100651.19;5032360;28;20469;-78
2022/11/22 00:03:24;;;;;;;10.83;7.10;;;;;;;8.45;53.44;100640.47;5034652;28;20464;-76
2022/11/22 00:05:50;;;;;;;9.27;7.65;;;;;;;8.42;53.35;100652.16;5034419;28;20394;-77
2022/11/22 00:08:16;;;;;;;11.53;8.37;;;;;;;8.44;53.20;100659.13;5032298;28;20386;-76
2022/11/22 00:10:41;;;;;;;18.00;12.13;;;;;;;8.44;53.22;100656.47;5019139;28;20376;-78
2022/11/22 00:13:07;;;;;;;12.65;9.13;;;;;;;8.47;53.13;100656.16;5034453;28;20418;-77
2022/11/22 00:15:32;;;;;;;10.90;8.23;;;;;;;8.47;52.77;100650.88;5035404;28;20421;-79
2022/11/22 00:17:57;;;;;;;11.33;8.60;;;;;;;8.39;53.49;100646.34;5034923;28;20382;-78
2022/11/22 00:20:23;;;;;;;12.63;9.50;;;;;;;8.38;53.45;100644.69;5038862;28;20761;-77
2022/11/22 00:22:49;;;;;;;12.70;9.65;;;;;;;8.36;53.33;100649.31;5040940;28;20406;-77
2022/11/22 00:25:14;;;;;;;9.20;6.83;;;;;;;8.38;53.25;100647.34;5033230;28;20375;-78
2022/11/22 00:27:40;;;;;;;7.17;5.83;;;;;;;8.25;53.75;100650.41;5029130;28;20884;-79
2022/11/22 00:30:06;;;;;;;9.02;7.18;;;;;;;8.18;53.70;100649.38;5036824;28;21236;-78
2022/11/22 00:32:32;;;;;;;8.03;5.57;;;;;;;8.04;54.11;100656.88;5036879;28;20393;-77
2022/11/22 00:34:57;;;;;;;7.47;6.10;;;;;;;8.06;54.36;100664.63;5030531;28;20495;-78
2022/11/22 00:37:23;;;;;;;9.27;6.60;;;;;;;8.09;54.41;100660.88;5047048;28;20483;-78
2022/11/22 00:39:48;;;;;;;7.75;5.95;;;;;;;7.96;54.56;100650.69;5050026;28;20789;-77
2022/11/22 00:42:14;;;;;;;7.50;6.10;;;;;;;7.94;54.98;100652.66;5039875;28;20408;-79
2022/11/22 00:44:39;;;;;;;8.40;5.63;;;;;;;7.96;55.00;100648.91;5040764;28;20402;-79
2022/11/22 00:47:05;;;;;;;7.53;5.90;;;;;;;8.01;55.13;100646.63;5037825;28;20705;-79
2022/11/22 00:49:30;;;;;;;7.03;5.60;;;;;;;8.00;54.51;100657.34;5036409;28;20386;-78
2022/11/22 00:51:56;;;;;;;7.97;6.20;;;;;;;7.84;54.68;100650.94;5037919;28;20428;-78
2022/11/22 00:54:21;;;;;;;7.38;5.40;;;;;;;7.95;55.18;100649.88;5039992;28;20465;-79
2022/11/22 00:56:47;;;;;;;7.97;5.53;;;;;;;7.95;54.81;100659.63;5038069;28;20389;-78
2022/11/22 00:59:12;;;;;;;6.83;5.70;;;;;;;7.89;54.96;100653.13;5037627;28;20778;-78
2022/11/22 01:01:38;;;;;;;8.00;6.05;;;;;;;7.92;54.98;100649.34;5043784;28;20402;-79
2022/11/22 01:04:03;;;;;;;7.83;5.60;;;;;;;7.82;54.81;100657.38;5041296;28;20784;-78
2022/11/22 01:06:29;;;;;;;8.20;5.80;;;;;;;7.90;54.89;100653.97;5037668;28;20376;-78
2022/11/22 01:08:54;;;;;;;7.07;5.50;;;;;;;7.91;55.18;100656.44;5023662;28;20433;-79
2022/11/22 01:11:20;;;;;;;7.72;5.90;;;;;;;7.93;54.77;100662.41;5037595;28;20390;-79
2022/11/22 01:13:45;;;;;;;10.33;8.00;;;;;;;7.80;55.35;100659.34;5017388;28;20438;-78
2022/11/22 01:16:12;;;;;;;8.60;6.07;;;;;;;7.82;54.77;100658.19;5017483;28;20912;-79
2022/11/22 01:18:38;;;;;;;7.43;5.38;;;;;;;7.87;54.96;100659.53;5017000;28;20415;-78
2022/11/22 01:21:04;;;;;;;8.43;6.00;;;;;;;7.89;55.11;100650.50;5017768;28;20392;-78
2022/11/22 01:23:30;;;;;;;8.98;6.93;;;;;;;7.91;54.66;100660.91;5016964;28;20479;-78
2022/11/22 01:25:56;;;;;;;8.25;6.00;;;;;;;7.88;54.87;100658.56;4998589;28;20404;-78
2022/11/22 01:28:21;;;;;;;12.27;8.30;;;;;;;7.80;55.11;100654.88;5015696;28;20470;-78
2022/11/22 01:30:51;;;;;;;8.43;7.30;;;;;;;7.79;55.10;100655.03;5018603;28;20421;-78
2022/11/22 01:33:17;;;;;;;8.30;6.65;;;;;;;7.73;55.02;100653.84;5010420;28;20400;-79
2022/11/22 01:35:43;;;;;;;7.97;6.90;;;;;;;7.65;55.61;100666.94;5020384;28;20419;-78
2022/11/22 01:38:08;;;;;;;8.27;7.30;;;;;;;7.63;55.46;100655.72;5016087;28;20400;-79
2022/11/22 01:40:34;;;;;;;7.57;6.30;;;;;;;7.70;55.63;100661.22;5014852;28;20400;-78
2022/11/22 01:43:00;;;;;;;7.18;5.55;;;;;;;7.61;55.35;100642.69;5019342;28;20378;-78
2022/11/22 01:45:29;;;;;;;6.53;4.85;;;;;;;7.62;55.58;100652.28;5018033;28;20400;-79
2022/11/22 01:47:59;;;;;;;7.57;5.40;;;;;;;7.62;55.74;100648.81;5015910;28;20455;-78
2022/11/22 01:50:25;;;;;;;8.93;6.22;;;;;;;7.65;55.71;100646.69;5005492;28;20447;-78
2022/11/22 01:52:51;;;;;;;9.30;6.30;;;;;;;7.65;55.49;100651.13;5015647;28;20581;-78
2022/11/22 01:55:17;;;;;;;6.53;5.28;;;;;;;7.67;55.56;100646.56;5019049;28;20407;-78
2022/11/22 01:57:44;;;;;;;7.03;5.23;;;;;;;7.65;55.47;100651.13;5018030;28;20390;-78
2022/11/22 02:00:15;;;;;;;8.23;6.00;;;;;;;7.59;55.97;100652.56;5015390;28;20741;-78
2022/11/22 02:02:45;;;;;;;7.32;5.50;;;;;;;7.67;55.68;100649.19;5010841;28;20829;-79
2022/11/22 02:05:14;;;;;;;9.68;6.55;;;;;;;7.73;55.45;100653.03;5015915;28;20372;-78
2022/11/22 02:08:09;;;;;;;12.18;10.05;;;;;;;7.83;54.83;100643.19;5017888;28;20400;-78
2022/11/22 02:10:41;;;;;;;12.27;10.45;;;;;;;7.71;54.82;100644.44;5006315;28;20479;-78
2022/11/22 02:13:07;;;;;;;13.90;11.43;;;;;;;7.69;55.19;100649.84;5031965;28;20414;-80
2022/11/22 02:15:34;;;;;;;13.23;11.00;;;;;;;7.68;55.41;100657.91;5036927;28;20460;-77
2022/11/22 02:17:59;;;;;;;13.50;10.90;;;;;;;7.61;55.42;100642.69;5034849;28;20446;-78
2022/11/22 02:20:25;;;;;;;15.53;12.03;;;;;;;7.68;54.94;100650.81;5050215;28;20388;-78
2022/11/22 02:23:22;;;;;;;12.65;10.10;;;;;;;7.79;54.76;100655.84;5035465;28;20470;-78
2022/11/22 02:25:58;;;;;;;12.40;10.73;;;;;;;7.97;54.42;100653.19;5003576;28;20393;-78
2022/11/22 02:28:25;;;;;;;11.05;7.75;;;;;;;8.06;53.88;100655.88;5050267;28;20402;-78
2022/11/22 02:30:50;;;;;;;11.30;8.97;;;;;;;8.02;53.99;100650.09;5054308;28;20430;-79
2022/11/22 02:33:16;;;;;;;12.10;9.17;;;;;;;8.04;53.99;100650.75;5056245;28;20382;-79
2022/11/22 02:35:43;;;;;;;12.38;9.75;;;;;;;7.85;54.23;100646.53;5046215;28;20457;-79
2022/11/22 02:38:12;;;;;;;10.45;7.70;;;;;;;7.93;54.09;100651.84;5040221;28;20431;-79
2022/11/22 02:40:51;;;;;;;10.45;7.60;;;;;;;7.98;54.12;100657.50;5048587;28;20471;-79
2022/11/22 02:43:28;;;;;;;10.70;7.27;;;;;;;7.87;54.29;100641.06;5038105;28;20453;-79
2022/11/22 02:45:54;;;;;;;9.50;6.70;;;;;;;7.81;53.92;100634.59;5039935;28;20869;-79
2022/11/22 02:48:19;;;;;;;8.17;6.70;;;;;;;7.84;54.33;100629.84;5044134;28;20408;-79
2022/11/22 02:50:45;;;;;;;9.37;7.40;;;;;;;7.81;54.05;100631.97;5050981;28;20393;-79
2022/11/22 02:53:11;;;;;;;7.70;6.47;;;;;;;7.67;54.49;100630.72;5036610;28;20435;-79
2022/11/22 02:55:37;;;;;;;7.18;6.25;;;;;;;7.66;54.35;100629.88;5037052;28;20474;-78
2022/11/22 02:58:04;;;;;;;7.07;5.83;;;;;;;7.66;54.62;100626.41;5019734;28;20450;-78
2022/11/22 03:00:31;;;;;;;9.05;7.03;;;;;;;7.74;54.30;100637.03;5035015;28;20400;-78
2022/11/22 03:02:56;;;;;;;9.07;6.43;;;;;;;7.75;53.99;100643.13;5019557;28;20378;-79
2022/11/22 03:05:22;;;;;;;8.47;6.30;;;;;;;7.74;54.14;100650.22;5035391;28;20389;-80
2022/11/22 03:07:49;;;;;;;10.27;7.80;;;;;;;7.70;53.99;100645.41;5035479;28;20414;-79
2022/11/22 03:10:15;;;;;;;8.70;6.45;;;;;;;7.63;54.35;100645.19;5042467;28;20389;-79
2022/11/22 03:12:40;;;;;;;9.87;7.27;;;;;;;7.50;54.88;100652.66;5035185;28;20422;-79
2022/11/22 03:15:06;;;;;;;8.30;6.33;;;;;;;7.33;55.12;100639.31;5034363;28;20418;-78
2022/11/22 03:17:31;;;;;;;11.95;8.32;;;;;;;7.34;55.24;100650.69;5036453;28;20449;-78
2022/11/22 03:19:57;;;;;;;11.70;7.97;;;;;;;7.28;55.61;100645.03;5037252;28;20383;-78
2022/11/22 03:22:22;;;;;;;10.00;7.20;;;;;;;7.23;55.52;100628.84;5018186;28;20410;-79
2022/11/22 03:24:48;;;;;;;9.07;7.07;;;;;;;7.30;55.63;100636.16;5035722;28;20448;-78
2022/11/22 03:27:13;;;;;;;7.53;5.50;;;;;;;7.30;55.66;100631.72;5019452;28;20398;-79
2022/11/22 03:29:39;;;;;;;6.73;5.00;;;;;;;7.39;55.39;100630.81;5035811;28;20722;-79
2022/11/22 03:32:04;;;;;;;6.13;4.70;;;;;;;7.45;55.12;100632.84;5020657;28;20414;-78
2022/11/22 03:34:30;;;;;;;7.43;4.50;;;;;;;7.38;55.28;100634.44;5032409;28;20382;-77
2022/11/22 03:36:55;;;;;;;5.40;4.70;;;;;;;7.33;55.29;100627.94;5034945;28;20385;-77
2022/11/22 03:39:21;;;;;;;6.83;5.37;;;;;;;7.37;55.57;100621.41;5034658;28;20433;-78
2022/11/22 03:41:46;;;;;;;6.40;5.37;;;;;;;7.38;55.36;100618.63;5035380;28;20402;-79
2022/11/22 03:44:12;;;;;;;7.72;5.93;;;;;;;7.40;55.01;100614.00;5043980;28;20404;-77
2022/11/22 03:46:37;;;;;;;8.07;7.17;;;;;;;7.47;54.88;100616.84;5024456;28;20381;-78
2022/11/22 03:49:03;;;;;;;12.17;9.30;;;;;;;7.49;54.83;100620.19;5040831;28;20475;-78
2022/11/22 03:51:28;;;;;;;10.27;7.38;;;;;;;7.38;55.38;100620.41;5017395;28;21037;-78
2022/11/22 03:53:53;;;;;;;20.63;14.80;;;;;;;7.18;55.65;100623.19;5034709;28;20471;-77
2022/11/22 03:56:19;;;;;;;15.95;11.75;;;;;;;7.12;55.59;100629.06;5044329;28;20408;-77
2022/11/22 03:58:44;;;;;;;7.30;6.20;;;;;;;7.02;55.84;100618.59;5038314;28;20473;-77
2022/11/22 04:01:10;;;;;;;6.03;4.90;;;;;;;6.88;56.50;100627.84;5034970;28;20402;-77
2022/11/22 04:03:35;;;;;;;8.63;6.50;;;;;;;6.81;57.13;100616.22;5032392;28;20739;-76
2022/11/22 04:06:01;;;;;;;7.37;6.00;;;;;;;6.77;57.09;100603.47;5037556;28;20397;-77
2022/11/22 04:08:26;;;;;;;6.23;5.53;;;;;;;6.72;57.08;100627.66;5032802;28;20386;-77
2022/11/22 04:10:52;;;;;;;7.13;5.38;;;;;;;6.73;57.07;100624.03;5045517;28;20402;-77
2022/11/22 04:13:18;;;;;;;8.20;6.40;;;;;;;6.80;56.83;100629.53;5027411;28;20533;-77
2022/11/22 04:15:44;;;;;;;9.57;7.78;;;;;;;6.86;56.64;100639.47;5017038;28;20427;-78
2022/11/22 04:18:10;;;;;;;7.03;6.33;;;;;;;6.99;56.45;100634.69;5020437;28;20509;-78
2022/11/22 04:23:22;;;;;;;8.15;6.20;;;;;;;7.20;55.46;100636.22;5016650;28;20410;-77
2022/11/22 04:25:50;;;;;;;8.57;6.57;;;;;;;7.06;55.92;100641.03;5014476;28;21250;-77
2022/11/22 04:28:17;;;;;;;6.35;4.82;;;;;;;6.86;56.21;100650.88;5014270;28;20858;-78
2022/11/22 04:33:27;;;;;;;5.88;5.18;;;;;;;6.77;56.65;100656.16;5021702;28;20489;-78
2022/11/22 04:35:53;;;;;;;8.93;6.93;;;;;;;6.79;56.69;100662.97;5019375;28;20916;-77
2022/11/22 04:38:19;;;;;;;9.90;7.73;;;;;;;6.78;56.56;100666.56;5012523;28;20445;-78
2022/11/22 04:40:45;;;;;;;13.83;8.50;;;;;;;6.73;56.61;100666.16;5017711;28;20446;-78
2022/11/22 04:46:14;;;;;;;10.90;7.97;;;;;;;6.73;56.46;100667.97;5020202;28;20448;-77
2022/11/22 04:48:40;;;;;;;10.55;9.43;;;;;;;6.72;56.41;100674.22;5003016;28;20378;-77
2022/11/22 04:53:51;;;;;;;10.43;7.63;;;;;;;6.74;56.40;100683.66;5016010;28;20435;-76
2022/11/22 04:56:17;;;;;;;9.45;7.38;;;;;;;6.83;55.87;100684.59;5015338;28;20933;-77
2022/11/22 04:58:43;;;;;;;7.32;5.80;;;;;;;6.81;55.72;100686.53;5008952;28;20483;-78
2022/11/22 05:01:10;;;;;;;9.73;7.28;;;;;;;6.69;56.16;100693.78;5018510;28;20482;-77
2022/11/22 05:03:36;;;;;;;11.00;8.13;;;;;;;6.60;56.17;100700.75;5012252;28;20392;-77
2022/11/22 05:06:03;;;;;;;13.87;9.03;;;;;;;6.51;57.11;100696.34;5003963;28;20392;-77
2022/11/22 05:08:29;;;;;;;9.90;7.63;;;;;;;6.50;57.21;100699.97;5013267;28;20882;-79
2022/11/22 05:10:58;;;;;;;12.43;10.48;;;;;;;6.68;56.24;100706.13;5011711;28;20392;-78
2022/11/22 05:13:31;;;;;;;14.82;12.20;;;;;;;6.83;55.72;100708.31;5019326;28;20422;-77
2022/11/22 05:15:57;;;;;;;35.57;25.47;;;;;;;6.81;55.37;100692.63;5031953;28;20412;-78
2022/11/22 05:18:24;;;;;;;22.55;15.65;;;;;;;6.65;55.93;100701.16;5038809;28;20400;-78
2022/11/22 05:20:49;;;;;;;11.10;8.15;;;;;;;6.37;56.52;100691.53;5037346;28;20390;-78
2022/11/22 05:26:00;;;;;;;9.38;6.68;;;;;;;6.34;56.89;100690.03;5041662;28;20488;-78
2022/11/22 05:28:30;;;;;;;7.43;6.35;;;;;;;6.33;56.81;100693.63;5044025;28;20882;-79
2022/11/22 05:30:55;;;;;;;10.77;7.07;;;;;;;6.35;57.11;100691.69;5038183;28;20392;-78
2022/11/22 05:33:21;;;;;;;10.00;7.72;;;;;;;6.26;57.17;100684.66;5039209;28;20763;-77
2022/11/22 05:35:46;;;;;;;9.50;7.43;;;;;;;6.24;57.35;100692.69;5028265;28;20806;-78
2022/11/22 05:38:12;;;;;;;7.60;5.90;;;;;;;6.26;57.65;100697.81;5017938;28;20391;-78
2022/11/22 05:40:37;;;;;;;8.20;6.53;;;;;;;6.25;57.51;100697.00;5043208;28;20400;-77
2022/11/22 05:43:03;;;;;;;8.27;6.83;;;;;;;6.26;57.70;100703.06;5036654;28;20501;-78
2022/11/22 05:45:28;;;;;;;9.05;6.70;;;;;;;6.21;57.52;100692.13;5041725;28;20402;-78
2022/11/22 05:47:55;;;;;;;9.53;5.57;;;;;;;6.22;57.80;100697.25;5038280;28;20390;-77
2022/11/22 05:50:20;;;;;;;11.50;8.13;;;;;;;6.19;57.77;100701.97;5049742;28;20458;-78
2022/11/22 05:52:45;;;;;;;11.07;7.78;;;;;;;6.19;58.11;100708.06;5038005;28;20382;-77
2022/11/22 05:55:11;;;;;;;10.20;7.53;;;;;;;6.15;57.99;100693.53;5017305;28;20414;-77
2022/11/22 05:57:36;;;;;;;11.07;7.27;;;;;;;6.11;58.13;100693.00;5044912;28;20398;-78
2022/11/22 06:00:03;;;;;;;10.77;7.70;;;;;;;6.15;58.30;100703.25;5038926;28;20750;-78
2022/11/22 06:02:30;;;;;;;21.50;15.68;;;;;;;6.15;58.14;100708.50;5045493;28;20394;-78
2022/11/22 06:04:55;;;;;;;14.85;9.73;;;;;;;6.18;57.97;100713.50;5045848;28;20449;-78
2022/11/22 06:07:21;;;;;;;13.03;9.73;;;;;;;6.25;57.85;100715.41;5040062;28;20492;-78
2022/11/22 06:09:46;;;;;;;22.50;11.70;;;;;;;6.22;58.02;100712.22;5020997;28;20380;-78
2022/11/22 06:12:12;;;;;;;12.75;10.07;;;;;;;6.08;58.52;100719.59;5029824;28;20400;-77
2022/11/22 06:14:37;;;;;;;11.57;9.50;;;;;;;6.00;58.78;100722.09;4996637;28;20411;-77
2022/11/22 06:17:03;;;;;;;20.57;13.57;;;;;;;6.08;58.86;100727.47;4996220;28;20396;-77
2022/11/22 06:19:28;;;;;;;20.23;13.90;;;;;;;6.21;58.49;100729.00;5018529;28;20395;-78
2022/11/22 06:21:54;;;;;;;18.00;12.47;;;;;;;6.39;58.03;100735.22;5013759;28;20404;-78
2022/11/22 06:24:19;;;;;;;17.20;11.65;;;;;;;6.54;57.41;100729.50;5013532;28;20387;-79
2022/11/22 06:26:45;;;;;;;19.87;11.93;;;;;;;6.66;57.12;100734.44;5013786;28;20380;-78
2022/11/22 06:29:10;;;;;;;12.97;8.73;;;;;;;6.78;56.94;100729.81;5026051;28;20384;-77
2022/11/22 06:31:36;;;;;;;12.17;9.03;;;;;;;6.86;56.97;100737.81;5024648;28;20401;-78
2022/11/22 06:34:02;;;;;;;11.43;8.40;;;;;;;6.91;56.92;100737.38;5014156;28;20383;-77
2022/11/22 06:36:29;;;;;;;12.05;8.05;;;;;;;6.92;56.90;100741.69;4996693;28;20525;-78
2022/11/22 06:38:55;;;;;;;9.07;7.03;;;;;;;6.98;56.86;100745.53;5012700;28;20396;-80
2022/11/22 06:41:26;;;;;;;19.77;12.82;;;;;;;7.12;57.00;100742.41;5017169;28;20407;-78
2022/11/22 06:43:53;;;;;;;37.53;19.53;;;;;;;7.18;56.80;100757.63;5012243;28;20400;-80
2022/11/22 06:46:23;;;;;;;54.10;32.08;;;;;;;7.20;57.08;100746.94;5014184;28;20462;-78
2022/11/22 06:48:48;;;;;;;15.20;11.07;;;;;;;7.19;57.14;100745.31;5007853;28;20395;-78
2022/11/22 06:51:15;;;;;;;28.05;18.58;;;;;;;7.13;57.26;100766.97;5016354;28;20398;-80
2022/11/22 06:53:42;;;;;;;12.07;8.32;;;;;;;7.12;57.72;100755.59;5015635;28;20388;-77
2022/11/22 06:56:14;;;;;;;11.80;7.93;;;;;;;7.14;57.21;100761.53;5013859;28;20442;-78
2022/11/22 06:58:42;;;;;;;12.68;8.80;;;;;;;7.23;57.02;100759.84;4996300;28;20748;-79
2022/11/22 07:01:10;;;;;;;11.47;7.63;;;;;;;7.29;56.82;100759.25;5017924;28;21119;-79
2022/11/22 07:03:38;;;;;;;10.85;7.30;;;;;;;7.16;57.19;100751.69;5012367;28;20495;-79
2022/11/22 07:06:05;;;;;;;10.77;7.35;;;;;;;7.18;57.35;100756.81;5010290;28;22084;-77
2022/11/22 07:08:30;;;;;;;8.82;7.13;;;;;;;7.17;57.22;100747.25;5017723;28;20498;-77
2022/11/22 07:11:09;;;;;;;9.30;7.60;;;;;;;7.18;57.68;100751.53;5016189;28;20396;-78
2022/11/22 07:13:36;;;;;;;13.20;8.40;;;;;;;7.30;57.41;100762.72;5012744;28;20419;-78
2022/11/22 07:16:04;;;;;;;10.67;7.40;;;;;;;7.28;57.29;100747.06;4997602;28;20911;-78
2022/11/22 07:18:31;;;;;;;10.90;8.50;;;;;;;7.33;57.59;100742.16;5014645;28;20471;-78
2022/11/22 07:21:05;;;;;;;11.48;8.60;;;;;;;7.32;57.41;100737.03;5018331;28;20376;-78
2022/11/22 07:23:31;;;;;;;12.02;9.30;;;;;;;7.32;57.47;100739.69;5013215;28;20853;-78
2022/11/22 07:25:57;;;;;;;11.10;8.00;;;;;;;7.27;57.82;100740.97;4996809;28;20431;-78
2022/11/22 07:28:23;;;;;;;10.55;8.40;;;;;;;7.28;57.61;100739.13;5013952;28;20376;-78
2022/11/22 07:30:49;;;;;;;11.30;8.52;;;;;;;7.36;57.98;100738.38;5022283;28;20399;-78
2022/11/22 07:33:15;;;;;;;12.10;8.82;;;;;;;7.40;57.91;100745.88;5017860;28;20399;-79
2022/11/22 07:35:40;;;;;;;14.10;8.77;;;;;;;7.47;57.62;100741.66;5014359;28;20404;-78
2022/11/22 07:38:06;;;;;;;12.82;8.98;;;;;;;7.62;57.32;100736.69;5015438;28;20384;-80
2022/11/22 07:40:32;;;;;;;10.50;8.55;;;;;;;7.60;57.53;100732.56;5017197;28;20395;-80
2022/11/22 07:42:57;;;;;;;12.07;8.80;;;;;;;7.54;57.72;100733.13;5015386;28;20394;-80
2022/11/22 07:45:23;;;;;;;11.57;9.17;;;;;;;7.66;58.10;100740.69;5015820;28;20959;-78
2022/11/22 07:47:48;;;;;;;12.50;9.07;;;;;;;7.79;57.75;100727.09;5015745;28;20479;-79
2022/11/22 07:50:14;;;;;;;11.10;9.10;;;;;;;7.88;57.50;100722.72;5015436;28;20396;-80
2022/11/22 07:52:40;;;;;;;13.35;9.48;;;;;;;7.99;57.73;100729.59;4998166;28;20411;-80
2022/11/22 07:55:06;;;;;;;11.40;8.88;;;;;;;7.99;57.85;100729.59;5018938;28;20414;-79
2022/11/22 07:57:32;;;;;;;11.43;8.63;;;;;;;8.11;57.75;100719.63;5006855;28;20727;-80
2022/11/22 07:59:58;;;;;;;10.68;8.32;;;;;;;8.21;57.48;100721.19;5020560;28;20383;-82
2022/11/22 08:02:24;;;;;;;9.50;7.63;;;;;;;8.10;57.67;100704.75;4999013;28;20451;-80
2022/11/22 08:04:50;;;;;;;9.07;7.82;;;;;;;8.15;57.44;100710.41;4996491;28;20399;-79
2022/11/22 08:07:16;;;;;;;11.15;8.55;;;;;;;8.27;56.91;100717.09;4998177;28;20388;-80
2022/11/22 08:09:41;;;;;;;9.95;7.85;;;;;;;8.38;56.82;100729.22;5015967;28;20380;-80
2022/11/22 08:12:07;;;;;;;48.15;26.23;;;;;;;8.48;56.88;100734.41;5007456;28;20414;-79
2022/11/22 08:14:32;;;;;;;25.83;15.55;;;;;;;8.61;56.29;100734.84;5016408;28;20454;-80
2022/11/22 08:16:58;;;;;;;10.70;8.60;;;;;;;8.70;56.29;100733.91;5013910;28;20420;-80
2022/11/22 08:19:23;;;;;;;10.43;8.20;;;;;;;8.75;56.59;100730.78;5014347;28;20423;-79
2022/11/22 08:21:48;;;;;;;9.60;7.63;;;;;;;8.85;56.12;100730.66;5027432;28;20458;-78
2022/11/22 08:24:15;;;;;;;9.73;7.90;;;;;;;8.83;56.45;100725.53;5015732;28;20747;-81
2022/11/22 08:26:41;;;;;;;8.88;6.90;;;;;;;8.88;56.60;100720.59;4980156;28;20821;-80
2022/11/22 08:29:09;;;;;;;8.65;7.47;;;;;;;8.87;55.79;100707.53;5027129;28;20479;-78
2022/11/22 08:31:34;;;;;;;9.85;7.55;;;;;;;8.71;56.27;100692.44;5013753;28;20411;-80
2022/11/22 08:34:00;;;;;;;8.57;7.65;;;;;;;8.83;56.54;100687.72;5013558;28;20384;-79
2022/11/22 08:36:26;;;;;;;9.73;7.47;;;;;;;8.87;56.21;100681.09;4996428;28;20482;-81
2022/11/22 08:38:52;;;;;;;11.02;8.80;;;;;;;8.91;56.13;100678.00;5014458;28;20382;-80
2022/11/22 08:41:17;;;;;;;14.35;9.32;;;;;;;9.01;56.09;100695.53;5013034;28;20400;-79
2022/11/22 08:43:43;;;;;;;11.30;9.23;;;;;;;9.05;56.00;100692.41;5015952;28;20392;-79
2022/11/22 08:46:09;;;;;;;11.63;9.63;;;;;;;9.03;55.79;100689.09;5015289;28;20873;-80
2022/11/22 08:48:36;;;;;;;12.93;9.70;;;;;;;9.07;55.64;100702.81;5016193;28;20475;-80
2022/11/22 08:51:04;;;;;;;12.70;9.80;;;;;;;9.23;56.05;100694.09;5018143;28;20460;-80
2022/11/22 08:53:32;;;;;;;11.55;9.27;;;;;;;9.40;55.27;100695.81;5013615;28;20391;-79
2022/11/22 08:56:02;;;;;;;11.77;8.93;;;;;;;9.51;55.43;100686.72;5011616;28;20412;-80
2022/11/22 08:58:33;;;;;;;11.90;8.90;;;;;;;9.45;55.07;100688.19;5013990;28;20400;-79
2022/11/22 09:01:08;;;;;;;10.00;7.70;;;;;;;9.39;54.74;100691.50;5015884;28;20391;-80
2022/11/22 09:03:35;;;;;;;9.40;6.70;;;;;;;9.52;55.20;100694.47;5016920;28;20402;-80
2022/11/22 09:06:05;;;;;;;7.93;5.70;;;;;;;9.66;54.61;100687.72;5014329;28;20392;-85
2022/11/22 09:08:32;;;;;;;9.40;5.72;;;;;;;9.74;54.81;100692.19;5329383;23;20435;-78
2022/11/22 09:11:24;;;;;;;6.35;5.10;;;;;;;9.74;53.88;100692.19;5054927;28;20440;-80
2022/11/22 09:13:49;;;;;;;7.03;5.60;;;;;;;9.85;54.06;100699.81;5042815;28;20844;-77
2022/11/22 09:16:18;;;;;;;5.93;5.30;;;;;;;9.80;53.67;100688.06;5054282;28;20470;-77
2022/11/22 09:18:43;;;;;;;6.70;5.30;;;;;;;9.83;53.42;100685.94;5055239;28;20384;-78
2022/11/22 09:21:15;;;;;;;6.22;5.35;;;;;;;9.98;53.56;100687.91;5060354;28;20382;-76
2022/11/22 09:23:44;;;;;;;6.88;5.32;;;;;;;10.00;53.50;100678.78;5043259;28;20378;-78
2022/11/22 09:26:13;;;;;;;10.15;7.45;;;;;;;10.06;53.49;100677.28;5044641;28;20929;-80
2022/11/22 09:28:38;;;;;;;9.40;6.93;;;;;;;10.17;53.48;100674.28;5057412;28;20495;-78
2022/11/22 09:31:07;;;;;;;6.77;5.90;;;;;;;10.15;52.97;100676.28;5049408;28;20947;-78
2022/11/22 09:33:34;;;;;;;7.75;5.93;;;;;;;10.17;52.99;100676.94;5058784;28;20380;-78
2022/11/22 09:36:07;;;;;;;8.70;5.43;;;;;;;10.25;53.25;100671.63;5048330;28;20431;-78
2022/11/22 09:38:34;;;;;;;7.63;5.70;;;;;;;10.42;52.81;100671.63;5048095;28;20446;-79
2022/11/22 09:41:12;;;;;;;7.38;5.95;;;;;;;10.43;52.61;100671.47;5055179;28;20380;-79
2022/11/22 09:43:56;;;;;;;8.77;6.18;;;;;;;10.27;52.77;100669.63;5040966;28;20429;-77
2022/11/22 09:46:55;;;;;;;8.35;6.30;;;;;;;10.26;52.72;100654.75;5075924;28;20363;-76
2022/11/22 09:49:23;;;;;;;7.75;6.63;;;;;;;10.42;52.95;100653.88;5055772;28;20380;-78
2022/11/22 09:52:12;;;;;;;7.88;6.55;;;;;;;10.28;53.17;100641.31;5055198;28;20515;-78
2022/11/22 09:54:47;;;;;;;6.55;5.32;;;;;;;10.20;53.05;100630.75;5061756;28;20374;-78
2022/11/22 09:57:26;;;;;;;9.95;6.90;;;;;;;10.32;53.36;100622.31;5076443;28;20389;-77
2022/11/22 10:00:17;;;;;;;9.20;7.35;;;;;;;10.17;54.01;100609.88;5036427;28;20383;-78
2022/11/22 10:02:50;;;;;;;8.35;5.35;;;;;;;10.31;53.71;100604.75;5072509;28;20382;-79
2022/11/22 10:05:23;;;;;;;6.32;5.32;;;;;;;10.37;53.40;100599.75;5047875;28;20373;-77
2022/11/22 10:08:17;;;;;;;4.72;4.18;;;;;;;10.35;52.73;100613.16;5054679;28;20382;-78
2022/11/22 10:10:43;;;;;;;5.53;4.35;;;;;;;10.41;52.34;100604.56;5017129;28;20402;-79
2022/11/22 10:13:21;;;;;;;6.03;4.90;;;;;;;10.43;52.38;100609.69;5053677;28;20469;-78
2022/11/22 10:16:04;;;;;;;5.47;4.40;;;;;;;10.61;52.07;100610.25;5064502;28;20414;-80
2022/11/22 10:18:40;;;;;;;7.95;5.20;;;;;;;10.85;51.77;100611.97;5050528;28;20774;-79
2022/11/22 10:21:14;;;;;;;6.13;4.87;;;;;;;10.73;51.44;100601.91;5075967;28;20870;-79
2022/11/22 10:23:42;;;;;;;6.03;5.00;;;;;;;10.71;52.01;100602.09;5056589;28;20388;-78
2022/11/22 10:26:18;;;;;;;6.03;5.03;;;;;;;10.75;52.34;100600.75;5055675;28;20385;-79
2022/11/22 10:28:49;;;;;;;7.40;5.38;;;;;;;10.77;52.03;100597.91;5050691;28;20383;-78
2022/11/22 10:31:21;;;;;;;5.70;4.93;;;;;;;10.74;52.38;100585.84;5060957;28;20388;-79
2022/11/22 10:34:22;;;;;;;7.87;5.80;;;;;;;10.94;52.36;100570.31;5044413;28;20394;-77
2022/11/22 10:37:12;;;;;;;7.60;5.35;;;;;;;10.95;52.55;100565.81;5061839;28;20420;-80
2022/11/22 10:40:05;;;;;;;6.40;5.80;;;;;;;11.00;52.37;100582.88;5055279;28;20399;-79
2022/11/22 10:42:34;;;;;;;6.65;5.57;;;;;;;11.04;52.25;100578.06;5047099;28;20409;-78
2022/11/22 10:45:05;;;;;;;7.35;6.03;;;;;;;10.98;52.52;100573.44;5065419;28;20470;-79
2022/11/22 10:47:41;;;;;;;6.55;5.10;;;;;;;10.91;52.74;100565.34;5071909;28;20405;-78
2022/11/22 10:50:22;;;;;;;10.70;5.70;;;;;;;11.03;52.65;100569.25;5054941;28;20397;-77
2022/11/22 10:52:50;;;;;;;8.13;5.33;;;;;;;11.17;52.60;100567.66;5057351;28;20451;-79
2022/11/22 10:55:47;;;;;;;6.10;5.30;;;;;;;11.13;52.31;100563.72;5055489;28;20538;-77
2022/11/22 10:58:33;;;;;;;7.75;5.30;;;;;;;11.27;52.35;100556.78;5051388;28;20462;-78
2022/11/22 11:01:42;;;;;;;6.80;5.05;;;;;;;11.23;52.16;100555.50;5025683;28;20415;-78
2022/11/22 11:04:11;;;;;;;5.73;4.40;;;;;;;11.13;52.15;100544.31;4986643;28;20401;-80
2022/11/22 11:06:44;;;;;;;6.93;5.55;;;;;;;11.05;52.39;100540.72;4985786;28;20385;-80
2022/11/22 11:09:17;;;;;;;7.70;5.43;;;;;;;11.22;52.58;100530.00;5029878;28;20498;-78
2022/11/22 11:11:45;;;;;;;6.97;5.77;;;;;;;11.30;52.24;100543.19;5064284;28;20379;-80
2022/11/22 11:14:35;;;;;;;6.63;5.47;;;;;;;10.92;53.45;100539.69;5076380;28;20397;-80
2022/11/22 11:17:02;;;;;;;5.95;5.35;;;;;;;11.21;53.05;100542.41;5065106;28;20778;-80
2022/11/22 11:19:34;;;;;;;6.63;5.10;;;;;;;11.20;52.48;100539.94;5051510;28;20380;-78
2022/11/22 11:22:07;;;;;;;6.40;5.30;;;;;;;11.18;52.55;100520.72;5053875;28;20442;-78
2022/11/22 11:24:37;;;;;;;6.82;5.10;;;;;;;11.37;52.18;100516.75;5050985;28;20379;-80
2022/11/22 11:27:02;;;;;;;6.17;5.07;;;;;;;11.52;51.97;100514.13;5034337;28;20379;-79
2022/11/22 11:29:42;;;;;;;6.50;5.30;;;;;;;11.46;51.67;100499.75;5062820;28;20448;-79
2022/11/22 11:32:15;;;;;;;6.13;5.50;;;;;;;11.44;51.57;100493.81;5053394;28;20752;-79
2022/11/22 11:34:47;;;;;;;6.22;4.90;;;;;;;11.28;52.17;100500.91;5051630;28;20781;-80
2022/11/22 11:37:21;;;;;;;5.47;4.50;;;;;;;11.32;52.17;100489.94;5053598;28;20400;-79
2022/11/22 11:39:47;;;;;;;6.70;4.50;;;;;;;11.28;52.24;100495.59;5041388;28;20388;-79
2022/11/22 11:42:31;;;;;;;4.73;4.20;;;;;;;11.30;52.29;100506.03;5037201;28;20376;-78
2022/11/22 11:45:27;;;;;;;6.30;5.15;;;;;;;11.37;51.89;100501.66;5042590;28;20401;-79
2022/11/22 11:47:53;;;;;;;5.57;4.97;;;;;;;11.41;51.61;100502.13;5061955;28;20391;-80